sensor_id;sensor_type;location;lat;lon;timestamp;P1;durP1;ratioP1;P2;durP2;ratioP2
76608;SDS011;65928;53.936;27.540;2023-03-21T00:01:15;18.17;;;11.73;;
76608;SDS011;65928;53.936;27.540;2023-03-21T00:03:40;18.63;;;11.15;;
76608;SDS011;65928;53.936;27.540;2023-03-21T00:06:10;18.75;;;11.35;;
76608;SDS011;65928;53.936;27.540;2023-03-21T00:08:37;19.38;;;11.57;;
76608;SDS011;65928;53.936;27.540;2023-03-21T00:11:05;17.50;;;11.48;;
76608;SDS011;65928;53.936;27.540;2023-03-21T00:13:32;20.08;;;11.98;;
76608;SDS011;65928;53.936;27.540;2023-03-21T00:16:05;20.15;;;11.40;;
76608;SDS011;65928;53.936;27.540;2023-03-21T00:18:33;17.02;;;12.00;;
76608;SDS011;65928;53.936;27.540;2023-03-21T00:21:06;21.08;;;13.20;;
76608;SDS011;65928;53.936;27.540;2023-03-21T00:23:33;17.55;;;12.40;;
76608;SDS011;65928;53.936;27.540;2023-03-21T00:25:59;19.63;;;12.30;;
76608;SDS011;65928;53.936;27.540;2023-03-21T00:28:25;17.63;;;11.82;;
76608;SDS011;65928;53.936;27.540;2023-03-21T00:30:50;20.40;;;12.60;;
76608;SDS011;65928;53.936;27.540;2023-03-21T00:33:21;20.10;;;12.52;;
76608;SDS011;65928;53.936;27.540;2023-03-21T00:35:48;20.45;;;12.77;;
76608;SDS011;65928;53.936;27.540;2023-03-21T00:38:16;20.30;;;11.65;;
76608;SDS011;65928;53.936;27.540;2023-03-21T00:40:42;22.00;;;13.13;;
76608;SDS011;65928;53.936;27.540;2023-03-21T00:43:07;21.00;;;12.50;;
76608;SDS011;65928;53.936;27.540;2023-03-21T00:45:33;22.50;;;12.32;;
76608;SDS011;65928;53.936;27.540;2023-03-21T00:47:58;17.48;;;11.40;;
76608;SDS011;65928;53.936;27.540;2023-03-21T00:50:24;18.17;;;12.30;;
76608;SDS011;65928;53.936;27.540;2023-03-21T00:52:49;19.33;;;13.25;;
76608;SDS011;65928;53.936;27.540;2023-03-21T00:55:16;18.83;;;12.15;;
76608;SDS011;65928;53.936;27.540;2023-03-21T00:57:42;21.92;;;13.20;;
76608;SDS011;65928;53.936;27.540;2023-03-21T01:00:10;18.95;;;12.05;;
76608;SDS011;65928;53.936;27.540;2023-03-21T01:02:38;20.73;;;13.55;;
76608;SDS011;65928;53.936;27.540;2023-03-21T01:05:21;19.25;;;12.85;;
76608;SDS011;65928;53.936;27.540;2023-03-21T01:08:13;19.50;;;13.70;;
76608;SDS011;65928;53.936;27.540;2023-03-21T01:10:41;20.30;;;13.93;;
76608;SDS011;65928;53.936;27.540;2023-03-21T01:13:08;21.15;;;13.77;;
76608;SDS011;65928;53.936;27.540;2023-03-21T01:15:35;21.25;;;13.00;;
76608;SDS011;65928;53.936;27.540;2023-03-21T01:18:01;18.27;;;13.30;;
76608;SDS011;65928;53.936;27.540;2023-03-21T01:20:27;18.42;;;11.95;;
76608;SDS011;65928;53.936;27.540;2023-03-21T01:22:52;21.48;;;14.13;;
76608;SDS011;65928;53.936;27.540;2023-03-21T01:25:17;22.90;;;14.15;;
76608;SDS011;65928;53.936;27.540;2023-03-21T01:27:43;19.58;;;13.43;;
76608;SDS011;65928;53.936;27.540;2023-03-21T01:30:08;23.27;;;14.75;;
76608;SDS011;65928;53.936;27.540;2023-03-21T01:32:34;17.73;;;12.20;;
76608;SDS011;65928;53.936;27.540;2023-03-21T01:35:00;20.77;;;12.73;;
76608;SDS011;65928;53.936;27.540;2023-03-21T01:37:25;20.92;;;13.80;;
76608;SDS011;65928;53.936;27.540;2023-03-21T01:39:51;20.80;;;13.10;;
76608;SDS011;65928;53.936;27.540;2023-03-21T01:42:16;21.90;;;14.38;;
76608;SDS011;65928;53.936;27.540;2023-03-21T01:49:51;21.48;;;12.75;;
76608;SDS011;65928;53.936;27.540;2023-03-21T01:52:21;18.63;;;13.30;;
76608;SDS011;65928;53.936;27.540;2023-03-21T01:54:50;18.90;;;13.35;;
76608;SDS011;65928;53.936;27.540;2023-03-21T01:57:21;24.25;;;15.82;;
76608;SDS011;65928;53.936;27.540;2023-03-21T01:59:56;21.60;;;13.85;;
76608;SDS011;65928;53.936;27.540;2023-03-21T02:02:26;22.92;;;14.95;;
76608;SDS011;65928;53.936;27.540;2023-03-21T02:04:55;23.27;;;14.02;;
76608;SDS011;65928;53.936;27.540;2023-03-21T02:07:29;19.27;;;13.18;;
76608;SDS011;65928;53.936;27.540;2023-03-21T02:09:59;23.05;;;14.50;;
76608;SDS011;65928;53.936;27.540;2023-03-21T02:12:29;21.15;;;14.18;;
76608;SDS011;65928;53.936;27.540;2023-03-21T02:14:56;22.30;;;14.45;;
76608;SDS011;65928;53.936;27.540;2023-03-21T02:43:35;24.15;;;15.50;;
76608;SDS011;65928;53.936;27.540;2023-03-21T02:51:33;22.33;;;15.35;;
76608;SDS011;65928;53.936;27.540;2023-03-21T02:54:02;24.23;;;15.32;;
76608;SDS011;65928;53.936;27.540;2023-03-21T02:56:31;23.67;;;14.55;;
76608;SDS011;65928;53.936;27.540;2023-03-21T02:58:59;30.58;;;15.23;;
76608;SDS011;65928;53.936;27.540;2023-03-21T03:01:24;22.40;;;16.02;;
76608;SDS011;65928;53.936;27.540;2023-03-21T03:03:50;25.73;;;17.88;;
76608;SDS011;65928;53.936;27.540;2023-03-21T03:06:23;24.77;;;16.33;;
76608;SDS011;65928;53.936;27.540;2023-03-21T03:09:03;23.77;;;15.80;;
76608;SDS011;65928;53.936;27.540;2023-03-21T03:11:41;24.27;;;16.77;;
76608;SDS011;65928;53.936;27.540;2023-03-21T03:19:34;25.15;;;16.20;;
76608;SDS011;65928;53.936;27.540;2023-03-21T03:22:11;24.05;;;16.20;;
76608;SDS011;65928;53.936;27.540;2023-03-21T03:24:48;28.40;;;18.02;;
76608;SDS011;65928;53.936;27.540;2023-03-21T03:27:28;24.67;;;15.88;;
76608;SDS011;65928;53.936;27.540;2023-03-21T03:29:59;23.88;;;17.10;;
76608;SDS011;65928;53.936;27.540;2023-03-21T03:32:32;23.25;;;17.90;;
76608;SDS011;65928;53.936;27.540;2023-03-21T03:35:02;25.98;;;16.77;;
76608;SDS011;65928;53.936;27.540;2023-03-21T03:37:30;28.30;;;17.30;;
76608;SDS011;65928;53.936;27.540;2023-03-21T03:45:06;27.15;;;19.20;;
76608;SDS011;65928;53.936;27.540;2023-03-21T03:52:58;26.40;;;18.80;;
76608;SDS011;65928;53.936;27.540;2023-03-21T03:55:31;29.33;;;18.50;;
76608;SDS011;65928;53.936;27.540;2023-03-21T03:57:59;31.50;;;19.63;;
76608;SDS011;65928;53.936;27.540;2023-03-21T04:00:25;33.35;;;19.90;;
76608;SDS011;65928;53.936;27.540;2023-03-21T04:02:51;27.35;;;20.60;;
76608;SDS011;65928;53.936;27.540;2023-03-21T04:05:16;30.95;;;18.70;;
76608;SDS011;65928;53.936;27.540;2023-03-21T04:07:45;30.50;;;20.33;;
76608;SDS011;65928;53.936;27.540;2023-03-21T04:10:15;34.30;;;20.73;;
76608;SDS011;65928;53.936;27.540;2023-03-21T04:12:41;32.67;;;19.77;;
76608;SDS011;65928;53.936;27.540;2023-03-21T04:15:06;35.13;;;21.45;;
76608;SDS011;65928;53.936;27.540;2023-03-21T04:17:32;34.10;;;19.70;;
76608;SDS011;65928;53.936;27.540;2023-03-21T04:19:57;35.28;;;20.88;;
76608;SDS011;65928;53.936;27.540;2023-03-21T04:22:23;38.85;;;21.67;;
76608;SDS011;65928;53.936;27.540;2023-03-21T04:24:48;34.38;;;21.63;;
76608;SDS011;65928;53.936;27.540;2023-03-21T04:27:14;41.67;;;22.95;;
76608;SDS011;65928;53.936;27.540;2023-03-21T04:29:40;33.72;;;21.15;;
76608;SDS011;65928;53.936;27.540;2023-03-21T04:32:05;37.00;;;22.13;;
76608;SDS011;65928;53.936;27.540;2023-03-21T04:34:40;38.35;;;21.20;;
76608;SDS011;65928;53.936;27.540;2023-03-21T04:37:14;37.58;;;21.05;;
76608;SDS011;65928;53.936;27.540;2023-03-21T04:39:41;32.15;;;19.98;;
76608;SDS011;65928;53.936;27.540;2023-03-21T04:42:07;36.25;;;20.95;;
76608;SDS011;65928;53.936;27.540;2023-03-21T04:44:32;34.30;;;18.73;;
76608;SDS011;65928;53.936;27.540;2023-03-21T04:46:57;35.10;;;20.70;;
76608;SDS011;65928;53.936;27.540;2023-03-21T04:49:23;33.63;;;19.52;;
76608;SDS011;65928;53.936;27.540;2023-03-21T04:51:48;34.13;;;20.38;;
76608;SDS011;65928;53.936;27.540;2023-03-21T04:54:13;31.55;;;18.65;;
76608;SDS011;65928;53.936;27.540;2023-03-21T04:56:39;33.83;;;19.88;;
76608;SDS011;65928;53.936;27.540;2023-03-21T04:59:06;30.13;;;18.63;;
76608;SDS011;65928;53.936;27.540;2023-03-21T05:01:35;28.17;;;17.42;;
76608;SDS011;65928;53.936;27.540;2023-03-21T05:04:00;30.80;;;17.55;;
76608;SDS011;65928;53.936;27.540;2023-03-21T05:06:27;28.90;;;18.80;;
76608;SDS011;65928;53.936;27.540;2023-03-21T05:08:53;26.83;;;16.20;;
76608;SDS011;65928;53.936;27.540;2023-03-21T05:11:21;24.02;;;16.67;;
76608;SDS011;65928;53.936;27.540;2023-03-21T05:13:46;25.05;;;16.55;;
76608;SDS011;65928;53.936;27.540;2023-03-21T05:16:11;23.63;;;16.02;;
76608;SDS011;65928;53.936;27.540;2023-03-21T05:18:37;21.83;;;14.55;;
76608;SDS011;65928;53.936;27.540;2023-03-21T05:21:02;23.60;;;14.60;;
76608;SDS011;65928;53.936;27.540;2023-03-21T05:23:32;21.65;;;15.00;;
76608;SDS011;65928;53.936;27.540;2023-03-21T05:26:02;23.38;;;14.75;;
76608;SDS011;65928;53.936;27.540;2023-03-21T05:28:34;24.17;;;15.03;;
76608;SDS011;65928;53.936;27.540;2023-03-21T05:31:03;21.92;;;14.05;;
76608;SDS011;65928;53.936;27.540;2023-03-21T05:33:29;17.17;;;12.50;;
76608;SDS011;65928;53.936;27.540;2023-03-21T05:35:54;18.00;;;12.95;;
76608;SDS011;65928;53.936;27.540;2023-03-21T05:38:20;19.65;;;12.15;;
76608;SDS011;65928;53.936;27.540;2023-03-21T05:40:46;17.00;;;11.15;;
76608;SDS011;65928;53.936;27.540;2023-03-21T05:43:12;16.95;;;10.93;;
76608;SDS011;65928;53.936;27.540;2023-03-21T05:45:37;16.45;;;9.13;;
76608;SDS011;65928;53.936;27.540;2023-03-21T05:48:03;18.45;;;10.30;;
76608;SDS011;65928;53.936;27.540;2023-03-21T05:50:28;14.23;;;10.50;;
76608;SDS011;65928;53.936;27.540;2023-03-21T05:52:53;14.80;;;8.68;;
76608;SDS011;65928;53.936;27.540;2023-03-21T05:55:19;12.30;;;8.65;;
76608;SDS011;65928;53.936;27.540;2023-03-21T05:57:45;11.57;;;7.57;;
76608;SDS011;65928;53.936;27.540;2023-03-21T06:00:10;11.05;;;7.47;;
76608;SDS011;65928;53.936;27.540;2023-03-21T06:02:36;13.70;;;9.80;;
76608;SDS011;65928;53.936;27.540;2023-03-21T06:05:02;11.32;;;6.90;;
76608;SDS011;65928;53.936;27.540;2023-03-21T06:07:28;11.77;;;8.75;;
76608;SDS011;65928;53.936;27.540;2023-03-21T06:09:53;14.27;;;9.13;;
76608;SDS011;65928;53.936;27.540;2023-03-21T06:12:18;12.27;;;7.60;;
76608;SDS011;65928;53.936;27.540;2023-03-21T06:14:44;17.17;;;12.50;;
76608;SDS011;65928;53.936;27.540;2023-03-21T06:17:09;12.88;;;8.80;;
76608;SDS011;65928;53.936;27.540;2023-03-21T06:19:34;9.85;;;6.68;;
76608;SDS011;65928;53.936;27.540;2023-03-21T06:22:00;9.73;;;6.00;;
76608;SDS011;65928;53.936;27.540;2023-03-21T06:24:25;12.55;;;7.47;;
76608;SDS011;65928;53.936;27.540;2023-03-21T06:26:51;9.55;;;5.55;;
76608;SDS011;65928;53.936;27.540;2023-03-21T06:29:16;11.60;;;6.30;;
76608;SDS011;65928;53.936;27.540;2023-03-21T06:31:42;11.32;;;6.38;;
76608;SDS011;65928;53.936;27.540;2023-03-21T06:34:07;11.68;;;7.07;;
76608;SDS011;65928;53.936;27.540;2023-03-21T06:36:34;12.43;;;7.07;;
76608;SDS011;65928;53.936;27.540;2023-03-21T06:39:00;11.57;;;6.78;;
76608;SDS011;65928;53.936;27.540;2023-03-21T06:41:26;9.98;;;6.25;;
76608;SDS011;65928;53.936;27.540;2023-03-21T06:43:51;10.32;;;5.78;;
76608;SDS011;65928;53.936;27.540;2023-03-21T06:46:16;10.60;;;6.47;;
76608;SDS011;65928;53.936;27.540;2023-03-21T06:48:42;11.60;;;7.38;;
76608;SDS011;65928;53.936;27.540;2023-03-21T06:51:12;10.82;;;6.93;;
76608;SDS011;65928;53.936;27.540;2023-03-21T06:53:38;11.43;;;6.63;;
76608;SDS011;65928;53.936;27.540;2023-03-21T06:56:05;12.75;;;7.65;;
76608;SDS011;65928;53.936;27.540;2023-03-21T06:58:31;13.40;;;6.25;;
76608;SDS011;65928;53.936;27.540;2023-03-21T07:00:57;12.73;;;6.75;;
76608;SDS011;65928;53.936;27.540;2023-03-21T07:03:24;12.95;;;7.85;;
76608;SDS011;65928;53.936;27.540;2023-03-21T07:05:49;11.60;;;6.90;;
76608;SDS011;65928;53.936;27.540;2023-03-21T07:08:15;11.68;;;6.13;;
76608;SDS011;65928;53.936;27.540;2023-03-21T07:10:41;10.00;;;6.13;;
76608;SDS011;65928;53.936;27.540;2023-03-21T07:13:08;8.98;;;5.22;;
76608;SDS011;65928;53.936;27.540;2023-03-21T07:15:34;11.02;;;6.38;;
76608;SDS011;65928;53.936;27.540;2023-03-21T07:18:02;10.48;;;6.68;;
76608;SDS011;65928;53.936;27.540;2023-03-21T07:20:28;10.80;;;6.90;;
76608;SDS011;65928;53.936;27.540;2023-03-21T07:22:53;8.57;;;6.07;;
76608;SDS011;65928;53.936;27.540;2023-03-21T07:25:19;8.18;;;6.40;;
76608;SDS011;65928;53.936;27.540;2023-03-21T07:27:44;9.25;;;6.13;;
76608;SDS011;65928;53.936;27.540;2023-03-21T07:30:10;7.88;;;4.78;;
76608;SDS011;65928;53.936;27.540;2023-03-21T07:32:36;8.70;;;5.18;;
76608;SDS011;65928;53.936;27.540;2023-03-21T07:35:02;10.57;;;5.57;;
76608;SDS011;65928;53.936;27.540;2023-03-21T07:37:28;17.73;;;6.15;;
76608;SDS011;65928;53.936;27.540;2023-03-21T07:39:53;9.93;;;5.68;;
76608;SDS011;65928;53.936;27.540;2023-03-21T07:42:19;6.82;;;4.72;;
76608;SDS011;65928;53.936;27.540;2023-03-21T07:44:44;6.22;;;3.90;;
76608;SDS011;65928;53.936;27.540;2023-03-21T07:47:09;5.50;;;3.25;;
76608;SDS011;65928;53.936;27.540;2023-03-21T07:49:35;6.13;;;3.70;;
76608;SDS011;65928;53.936;27.540;2023-03-21T07:52:01;6.80;;;4.70;;
76608;SDS011;65928;53.936;27.540;2023-03-21T07:54:27;7.47;;;4.50;;
76608;SDS011;65928;53.936;27.540;2023-03-21T07:56:53;6.60;;;4.65;;
76608;SDS011;65928;53.936;27.540;2023-03-21T07:59:19;4.72;;;3.00;;
76608;SDS011;65928;53.936;27.540;2023-03-21T08:01:45;5.65;;;3.30;;
76608;SDS011;65928;53.936;27.540;2023-03-21T08:04:10;5.53;;;2.90;;
76608;SDS011;65928;53.936;27.540;2023-03-21T08:06:36;4.90;;;2.92;;
76608;SDS011;65928;53.936;27.540;2023-03-21T08:09:01;5.00;;;2.88;;
76608;SDS011;65928;53.936;27.540;2023-03-21T08:11:27;7.32;;;4.57;;
76608;SDS011;65928;53.936;27.540;2023-03-21T08:13:55;8.02;;;5.05;;
76608;SDS011;65928;53.936;27.540;2023-03-21T08:16:21;6.40;;;4.35;;
76608;SDS011;65928;53.936;27.540;2023-03-21T08:18:46;7.05;;;4.82;;
76608;SDS011;65928;53.936;27.540;2023-03-21T08:21:11;9.02;;;4.25;;
76608;SDS011;65928;53.936;27.540;2023-03-21T08:23:38;7.15;;;4.68;;
76608;SDS011;65928;53.936;27.540;2023-03-21T08:26:04;7.78;;;5.03;;
76608;SDS011;65928;53.936;27.540;2023-03-21T08:28:29;8.07;;;5.43;;
76608;SDS011;65928;53.936;27.540;2023-03-21T08:30:55;8.55;;;5.97;;
76608;SDS011;65928;53.936;27.540;2023-03-21T08:33:20;8.05;;;5.40;;
76608;SDS011;65928;53.936;27.540;2023-03-21T08:35:46;6.18;;;4.05;;
76608;SDS011;65928;53.936;27.540;2023-03-21T08:38:12;7.32;;;4.30;;
76608;SDS011;65928;53.936;27.540;2023-03-21T08:40:38;6.45;;;4.03;;
76608;SDS011;65928;53.936;27.540;2023-03-21T08:43:03;7.50;;;4.57;;
76608;SDS011;65928;53.936;27.540;2023-03-21T08:45:29;8.00;;;4.90;;
76608;SDS011;65928;53.936;27.540;2023-03-21T08:47:55;7.18;;;4.63;;
76608;SDS011;65928;53.936;27.540;2023-03-21T08:50:21;6.10;;;3.97;;
76608;SDS011;65928;53.936;27.540;2023-03-21T08:52:48;6.45;;;3.63;;
76608;SDS011;65928;53.936;27.540;2023-03-21T08:55:15;6.45;;;3.95;;
76608;SDS011;65928;53.936;27.540;2023-03-21T08:57:41;5.55;;;3.97;;
76608;SDS011;65928;53.936;27.540;2023-03-21T09:00:08;5.93;;;3.10;;
76608;SDS011;65928;53.936;27.540;2023-03-21T09:02:40;6.82;;;4.85;;
76608;SDS011;65928;53.936;27.540;2023-03-21T09:05:06;6.50;;;3.92;;
76608;SDS011;65928;53.936;27.540;2023-03-21T09:07:33;9.77;;;5.65;;
76608;SDS011;65928;53.936;27.540;2023-03-21T09:10:00;4.88;;;2.88;;
76608;SDS011;65928;53.936;27.540;2023-03-21T09:12:28;5.72;;;2.88;;
76608;SDS011;65928;53.936;27.540;2023-03-21T09:14:54;5.00;;;2.83;;
76608;SDS011;65928;53.936;27.540;2023-03-21T09:17:19;4.75;;;2.80;;
76608;SDS011;65928;53.936;27.540;2023-03-21T09:19:45;4.97;;;2.88;;
76608;SDS011;65928;53.936;27.540;2023-03-21T09:22:11;5.32;;;3.40;;
76608;SDS011;65928;53.936;27.540;2023-03-21T09:24:38;5.47;;;3.30;;
76608;SDS011;65928;53.936;27.540;2023-03-21T09:27:05;4.70;;;2.95;;
76608;SDS011;65928;53.936;27.540;2023-03-21T09:29:31;6.25;;;3.13;;
76608;SDS011;65928;53.936;27.540;2023-03-21T09:31:57;4.85;;;2.70;;
76608;SDS011;65928;53.936;27.540;2023-03-21T09:34:23;4.38;;;2.70;;
76608;SDS011;65928;53.936;27.540;2023-03-21T09:36:50;5.13;;;3.50;;
76608;SDS011;65928;53.936;27.540;2023-03-21T09:39:18;4.43;;;2.40;;
76608;SDS011;65928;53.936;27.540;2023-03-21T09:47:26;6.90;;;2.90;;
76608;SDS011;65928;53.936;27.540;2023-03-21T09:50:02;6.47;;;3.83;;
76608;SDS011;65928;53.936;27.540;2023-03-21T09:55:29;5.75;;;3.63;;
76608;SDS011;65928;53.936;27.540;2023-03-21T09:58:01;4.53;;;2.40;;
76608;SDS011;65928;53.936;27.540;2023-03-21T10:01:13;4.72;;;2.60;;
76608;SDS011;65928;53.936;27.540;2023-03-21T10:03:52;5.85;;;3.03;;
76608;SDS011;65928;53.936;27.540;2023-03-21T10:06:19;5.45;;;3.17;;
76608;SDS011;65928;53.936;27.540;2023-03-21T10:08:52;4.15;;;2.28;;
76608;SDS011;65928;53.936;27.540;2023-03-21T10:11:26;5.20;;;2.53;;
76608;SDS011;65928;53.936;27.540;2023-03-21T10:14:02;5.75;;;3.47;;
76608;SDS011;65928;53.936;27.540;2023-03-21T10:16:35;5.03;;;2.78;;
76608;SDS011;65928;53.936;27.540;2023-03-21T10:19:12;4.32;;;2.20;;
76608;SDS011;65928;53.936;27.540;2023-03-21T10:21:40;5.00;;;2.80;;
76608;SDS011;65928;53.936;27.540;2023-03-21T10:24:13;6.30;;;3.10;;
76608;SDS011;65928;53.936;27.540;2023-03-21T10:26:44;7.18;;;4.13;;
76608;SDS011;65928;53.936;27.540;2023-03-21T10:29:14;5.78;;;3.35;;
76608;SDS011;65928;53.936;27.540;2023-03-21T10:31:41;5.95;;;3.35;;
76608;SDS011;65928;53.936;27.540;2023-03-21T10:34:27;7.07;;;4.47;;
76608;SDS011;65928;53.936;27.540;2023-03-21T10:36:57;5.57;;;3.67;;
76608;SDS011;65928;53.936;27.540;2023-03-21T10:39:43;7.97;;;4.10;;
76608;SDS011;65928;53.936;27.540;2023-03-21T10:42:21;5.35;;;3.67;;
76608;SDS011;65928;53.936;27.540;2023-03-21T10:44:49;6.32;;;3.50;;
76608;SDS011;65928;53.936;27.540;2023-03-21T10:47:19;6.68;;;3.88;;
76608;SDS011;65928;53.936;27.540;2023-03-21T10:49:46;7.30;;;4.95;;
76608;SDS011;65928;53.936;27.540;2023-03-21T10:52:12;8.20;;;5.18;;
76608;SDS011;65928;53.936;27.540;2023-03-21T10:54:47;8.65;;;5.07;;
76608;SDS011;65928;53.936;27.540;2023-03-21T10:57:20;10.88;;;3.58;;
76608;SDS011;65928;53.936;27.540;2023-03-21T10:59:50;7.75;;;3.97;;
76608;SDS011;65928;53.936;27.540;2023-03-21T11:02:40;7.95;;;4.35;;
76608;SDS011;65928;53.936;27.540;2023-03-21T11:08:09;7.60;;;5.00;;
76608;SDS011;65928;53.936;27.540;2023-03-21T11:10:53;7.40;;;4.75;;
76608;SDS011;65928;53.936;27.540;2023-03-21T11:13:26;6.57;;;4.38;;
76608;SDS011;65928;53.936;27.540;2023-03-21T11:16:02;9.88;;;5.20;;
76608;SDS011;65928;53.936;27.540;2023-03-21T11:18:30;7.53;;;3.40;;
76608;SDS011;65928;53.936;27.540;2023-03-21T11:20:58;7.03;;;3.42;;
76608;SDS011;65928;53.936;27.540;2023-03-21T11:23:29;6.90;;;3.90;;
76608;SDS011;65928;53.936;27.540;2023-03-21T11:25:57;6.53;;;3.53;;
76608;SDS011;65928;53.936;27.540;2023-03-21T11:28:25;8.20;;;4.28;;
76608;SDS011;65928;53.936;27.540;2023-03-21T11:30:58;7.18;;;3.58;;
76608;SDS011;65928;53.936;27.540;2023-03-21T11:33:26;7.40;;;3.95;;
76608;SDS011;65928;53.936;27.540;2023-03-21T11:35:58;11.35;;;3.95;;
76608;SDS011;65928;53.936;27.540;2023-03-21T11:38:25;7.72;;;4.35;;
76608;SDS011;65928;53.936;27.540;2023-03-21T11:40:56;7.82;;;4.93;;
76608;SDS011;65928;53.936;27.540;2023-03-21T11:43:27;7.47;;;4.22;;
76608;SDS011;65928;53.936;27.540;2023-03-21T11:46:01;4.90;;;3.20;;
76608;SDS011;65928;53.936;27.540;2023-03-21T11:48:38;8.20;;;4.45;;
76608;SDS011;65928;53.936;27.540;2023-03-21T11:51:15;8.05;;;4.00;;
76608;SDS011;65928;53.936;27.540;2023-03-21T11:53:44;7.85;;;4.22;;
76608;SDS011;65928;53.936;27.540;2023-03-21T11:56:26;5.05;;;3.60;;
76608;SDS011;65928;53.936;27.540;2023-03-21T12:09:35;7.43;;;3.50;;
76608;SDS011;65928;53.936;27.540;2023-03-21T12:12:12;7.47;;;3.92;;
76608;SDS011;65928;53.936;27.540;2023-03-21T12:18:13;5.38;;;3.83;;
76608;SDS011;65928;53.936;27.540;2023-03-21T12:23:04;6.00;;;3.00;;
76608;SDS011;65928;53.936;27.540;2023-03-21T12:25:49;4.85;;;2.78;;
76608;SDS011;65928;53.936;27.540;2023-03-21T12:33:49;4.13;;;2.45;;
76608;SDS011;65928;53.936;27.540;2023-03-21T12:44:36;5.22;;;2.63;;
76608;SDS011;65928;53.936;27.540;2023-03-21T12:47:25;4.43;;;2.55;;
76608;SDS011;65928;53.936;27.540;2023-03-21T12:49:59;5.88;;;3.20;;
76608;SDS011;65928;53.936;27.540;2023-03-21T12:52:40;4.40;;;2.47;;
76608;SDS011;65928;53.936;27.540;2023-03-21T12:57:37;5.05;;;2.83;;
76608;SDS011;65928;53.936;27.540;2023-03-21T13:05:47;5.82;;;2.80;;
76608;SDS011;65928;53.936;27.540;2023-03-21T13:08:36;5.07;;;2.63;;
76608;SDS011;65928;53.936;27.540;2023-03-21T13:11:02;4.05;;;2.15;;
76608;SDS011;65928;53.936;27.540;2023-03-21T13:19:10;4.03;;;2.13;;
76608;SDS011;65928;53.936;27.540;2023-03-21T13:24:45;6.35;;;2.40;;
76608;SDS011;65928;53.936;27.540;2023-03-21T13:34:59;5.30;;;2.80;;
76608;SDS011;65928;53.936;27.540;2023-03-21T13:37:30;6.95;;;2.88;;
76608;SDS011;65928;53.936;27.540;2023-03-21T13:40:05;7.03;;;2.50;;
76608;SDS011;65928;53.936;27.540;2023-03-21T13:42:41;4.68;;;2.72;;
76608;SDS011;65928;53.936;27.540;2023-03-21T13:45:10;4.50;;;2.67;;
76608;SDS011;65928;53.936;27.540;2023-03-21T13:47:53;4.57;;;3.08;;
76608;SDS011;65928;53.936;27.540;2023-03-21T13:50:23;5.18;;;2.83;;
76608;SDS011;65928;53.936;27.540;2023-03-21T13:55:26;5.07;;;2.75;;
76608;SDS011;65928;53.936;27.540;2023-03-21T13:57:53;5.13;;;2.35;;
76608;SDS011;65928;53.936;27.540;2023-03-21T14:00:20;6.30;;;2.63;;
76608;SDS011;65928;53.936;27.540;2023-03-21T14:05:25;4.90;;;2.45;;
76608;SDS011;65928;53.936;27.540;2023-03-21T14:08:14;4.90;;;2.60;;
76608;SDS011;65928;53.936;27.540;2023-03-21T14:10:41;6.20;;;2.53;;
76608;SDS011;65928;53.936;27.540;2023-03-21T14:13:10;5.82;;;2.83;;
76608;SDS011;65928;53.936;27.540;2023-03-21T14:15:45;7.63;;;3.23;;
76608;SDS011;65928;53.936;27.540;2023-03-21T14:18:14;4.20;;;2.35;;
76608;SDS011;65928;53.936;27.540;2023-03-21T14:20:43;7.53;;;2.50;;
76608;SDS011;65928;53.936;27.540;2023-03-21T14:23:12;3.65;;;2.22;;
76608;SDS011;65928;53.936;27.540;2023-03-21T14:25:39;5.03;;;2.42;;
76608;SDS011;65928;53.936;27.540;2023-03-21T14:28:12;3.47;;;2.20;;
76608;SDS011;65928;53.936;27.540;2023-03-21T14:30:40;3.45;;;2.25;;
76608;SDS011;65928;53.936;27.540;2023-03-21T14:35:48;5.50;;;3.10;;
76608;SDS011;65928;53.936;27.540;2023-03-21T14:38:18;4.97;;;2.28;;
76608;SDS011;65928;53.936;27.540;2023-03-21T14:40:49;5.55;;;2.42;;
76608;SDS011;65928;53.936;27.540;2023-03-21T14:43:20;4.85;;;2.20;;
76608;SDS011;65928;53.936;27.540;2023-03-21T14:45:47;5.32;;;2.47;;
76608;SDS011;65928;53.936;27.540;2023-03-21T14:48:16;3.75;;;1.98;;
76608;SDS011;65928;53.936;27.540;2023-03-21T14:53:17;5.47;;;2.40;;
76608;SDS011;65928;53.936;27.540;2023-03-21T14:55:46;3.85;;;1.88;;
76608;SDS011;65928;53.936;27.540;2023-03-21T14:58:16;4.50;;;2.92;;
76608;SDS011;65928;53.936;27.540;2023-03-21T15:00:45;4.95;;;2.15;;
76608;SDS011;65928;53.936;27.540;2023-03-21T15:03:13;4.22;;;2.67;;
76608;SDS011;65928;53.936;27.540;2023-03-21T15:05:41;4.22;;;2.00;;
76608;SDS011;65928;53.936;27.540;2023-03-21T15:10:36;4.65;;;1.90;;
76608;SDS011;65928;53.936;27.540;2023-03-21T15:13:12;3.95;;;2.00;;
76608;SDS011;65928;53.936;27.540;2023-03-21T15:15:40;3.30;;;1.90;;
76608;SDS011;65928;53.936;27.540;2023-03-21T15:18:06;4.93;;;2.20;;
76608;SDS011;65928;53.936;27.540;2023-03-21T15:20:35;3.50;;;2.13;;
76608;SDS011;65928;53.936;27.540;2023-03-21T15:23:02;3.58;;;2.28;;
76608;SDS011;65928;53.936;27.540;2023-03-21T15:25:33;4.47;;;2.53;;
76608;SDS011;65928;53.936;27.540;2023-03-21T15:28:00;4.32;;;2.45;;
76608;SDS011;65928;53.936;27.540;2023-03-21T15:30:26;4.63;;;2.80;;
76608;SDS011;65928;53.936;27.540;2023-03-21T15:32:54;4.13;;;2.67;;
76608;SDS011;65928;53.936;27.540;2023-03-21T15:35:32;4.65;;;2.60;;
76608;SDS011;65928;53.936;27.540;2023-03-21T15:38:01;4.78;;;2.47;;
76608;SDS011;65928;53.936;27.540;2023-03-21T15:40:29;5.72;;;3.60;;
76608;SDS011;65928;53.936;27.540;2023-03-21T15:45:31;7.63;;;2.53;;
76608;SDS011;65928;53.936;27.540;2023-03-21T15:48:00;4.03;;;1.85;;
76608;SDS011;65928;53.936;27.540;2023-03-21T15:50:37;4.45;;;1.77;;
76608;SDS011;65928;53.936;27.540;2023-03-21T15:53:07;3.35;;;1.95;;
76608;SDS011;65928;53.936;27.540;2023-03-21T15:58:20;3.60;;;1.58;;
76608;SDS011;65928;53.936;27.540;2023-03-21T16:00:50;3.28;;;1.60;;
76608;SDS011;65928;53.936;27.540;2023-03-21T16:03:19;4.38;;;1.58;;
76608;SDS011;65928;53.936;27.540;2023-03-21T16:08:52;3.15;;;1.70;;
76608;SDS011;65928;53.936;27.540;2023-03-21T16:11:36;3.40;;;1.50;;
76608;SDS011;65928;53.936;27.540;2023-03-21T16:14:03;2.92;;;1.45;;
76608;SDS011;65928;53.936;27.540;2023-03-21T16:16:29;2.53;;;1.45;;
76608;SDS011;65928;53.936;27.540;2023-03-21T16:18:56;4.75;;;1.80;;
76608;SDS011;65928;53.936;27.540;2023-03-21T16:21:23;2.88;;;1.55;;
76608;SDS011;65928;53.936;27.540;2023-03-21T16:23:50;2.72;;;1.10;;
76608;SDS011;65928;53.936;27.540;2023-03-21T16:26:20;3.17;;;1.65;;
76608;SDS011;65928;53.936;27.540;2023-03-21T16:28:47;4.38;;;1.40;;
76608;SDS011;65928;53.936;27.540;2023-03-21T16:31:18;4.10;;;1.50;;
76608;SDS011;65928;53.936;27.540;2023-03-21T16:33:46;2.72;;;1.23;;
76608;SDS011;65928;53.936;27.540;2023-03-21T16:36:13;3.83;;;1.50;;
76608;SDS011;65928;53.936;27.540;2023-03-21T16:38:42;3.75;;;1.50;;
76608;SDS011;65928;53.936;27.540;2023-03-21T16:41:13;4.38;;;1.92;;
76608;SDS011;65928;53.936;27.540;2023-03-21T16:43:39;4.15;;;1.60;;
76608;SDS011;65928;53.936;27.540;2023-03-21T16:46:10;4.50;;;1.80;;
76608;SDS011;65928;53.936;27.540;2023-03-21T16:48:36;5.47;;;1.95;;
76608;SDS011;65928;53.936;27.540;2023-03-21T16:51:01;3.60;;;1.83;;
76608;SDS011;65928;53.936;27.540;2023-03-21T16:53:26;3.33;;;1.65;;